Time;durP1;ratioP1;P1;durP2;ratioP2;P2;SDS_P1;SDS_P2;PMS_P1;PMS_P2;Temp;Humidity;BMP_temperature;BMP_pressure;BME280_temperature;BME280_humidity;BME280_pressure;Samples;Min_cycle;Max_cycle;Signal;HPM_P1;HPM_P2
2023/01/27 00:00:05;;;;;;;9.93;4.00;;;5.00;77.10;;;;;;5087353;28;20505;-74
2023/01/27 00:02:31;;;;;;;17.03;4.60;;;5.00;76.50;;;;;;5071253;28;20479;-72
2023/01/27 00:04:57;;;;;;;14.68;4.90;;;5.00;74.50;;;;;;5071226;28;20806;-73
2023/01/27 00:07:22;;;;;;;11.07;4.45;;;5.00;73.30;;;;;;5071083;28;20436;-73
2023/01/27 00:09:48;;;;;;;12.02;4.45;;;5.00;71.00;;;;;;5069522;28;20694;-74
2023/01/27 00:15:07;;;;;;;12.32;4.60;;;5.10;69.20;;;;;;5071290;28;20790;-73
2023/01/27 00:17:32;;;;;;;18.50;4.65;;;5.10;69.20;;;;;;5071561;28;20954;-74
2023/01/27 00:19:58;;;;;;;16.23;4.80;;;5.10;69.00;;;;;;5069596;28;20376;-75
2023/01/27 00:25:08;;;;;;;12.38;4.90;;;5.10;67.40;;;;;;5071576;28;20539;-73
2023/01/27 00:27:34;;;;;;;16.50;4.60;;;5.10;67.70;;;;;;5071710;28;20505;-74
2023/01/27 00:29:59;;;;;;;16.45;4.88;;;5.20;67.50;;;;;;5073945;28;20403;-74
2023/01/27 00:35:09;;;;;;;11.30;4.43;;;5.20;67.70;;;;;;5084087;28;20883;-73
2023/01/27 00:37:35;;;;;;;12.15;4.57;;;5.20;68.00;;;;;;5070619;28;20403;-75
2023/01/27 00:40:01;;;;;;;11.23;4.67;;;5.30;67.90;;;;;;5070544;28;20386;-74
2023/01/27 00:42:26;;;;;;;10.20;4.40;;;5.30;67.20;;;;;;5070603;28;20376;-73
2023/01/27 00:47:36;;;;;;;11.35;4.18;;;5.30;68.90;;;;;;5071086;28;20386;-74
2023/01/27 00:50:01;;;;;;;14.20;4.70;;;5.30;69.40;;;;;;5070343;28;20856;-73
2023/01/27 00:52:27;;;;;;;10.40;4.30;;;5.20;69.70;;;;;;5070374;28;20387;-72
2023/01/27 00:54:52;;;;;;;13.10;4.67;;;5.20;70.00;;;;;;5070650;28;20470;-74
2023/01/27 00:57:18;;;;;;;11.23;5.07;;;5.20;70.00;;;;;;5070391;28;20449;-74
2023/01/27 00:59:43;;;;;;;12.53;5.20;;;5.30;69.90;;;;;;5070820;28;20384;-74
2023/01/27 01:02:09;;;;;;;16.80;6.20;;;5.30;70.40;;;;;;5071219;28;20818;-74
2023/01/27 01:04:34;;;;;;;16.67;5.40;;;5.30;68.00;;;;;;5074473;28;20438;-73
2023/01/27 01:07:00;;;;;;;14.38;5.72;;;5.40;67.20;;;;;;5074547;28;20402;-73
2023/01/27 01:09:26;;;;;;;15.77;6.38;;;5.40;66.00;;;;;;5074832;28;20380;-74
2023/01/27 01:11:51;;;;;;;16.52;7.32;;;5.30;65.60;;;;;;5073726;28;20441;-73
2023/01/27 01:14:17;;;;;;;17.60;8.02;;;5.30;63.30;;;;;;5072699;28;20395;-73
2023/01/27 01:16:42;;;;;;;14.93;8.30;;;5.20;63.50;;;;;;5073873;28;20380;-73
2023/01/27 01:19:08;;;;;;;19.47;8.83;;;5.20;64.10;;;;;;5074069;28;20784;-73
2023/01/27 01:21:33;;;;;;;20.17;8.07;;;5.20;65.30;;;;;;5073796;28;20768;-73
2023/01/27 01:23:59;;;;;;;16.90;9.00;;;5.20;66.20;;;;;;5073782;28;20379;-73
2023/01/27 01:26:24;;;;;;;21.50;8.90;;;5.10;66.80;;;;;;5073938;28;20383;-73
2023/01/27 01:28:50;;;;;;;23.10;9.40;;;5.20;67.20;;;;;;5073934;28;20729;-72
2023/01/27 01:31:18;;;;;;;17.77;9.07;;;5.20;67.00;;;;;;5074144;28;20387;-73
2023/01/27 01:34:04;;;;;;;17.88;8.48;;;5.20;66.90;;;;;;5073884;28;20384;-74
2023/01/27 01:36:29;;;;;;;20.67;8.50;;;5.20;66.90;;;;;;5073593;28;20375;-75
2023/01/27 01:38:55;;;;;;;20.02;9.43;;;5.20;67.90;;;;;;5074034;28;20372;-74
2023/01/27 01:41:22;;;;;;;16.33;9.43;;;5.30;68.20;;;;;;5073904;28;20733;-75
2023/01/27 01:43:49;;;;;;;20.25;8.50;;;5.30;67.20;;;;;;5073678;28;20371;-75
2023/01/27 01:46:15;;;;;;;19.88;9.95;;;5.30;66.90;;;;;;5074011;28;20371;-75
2023/01/27 01:48:48;;;;;;;19.33;10.27;;;5.30;68.50;;;;;;5072336;28;20486;-75
2023/01/27 01:51:21;;;;;;;20.10;9.45;;;5.30;69.80;;;;;;5074184;28;20399;-75
2023/01/27 01:53:59;;;;;;;21.90;10.10;;;5.40;67.40;;;;;;5073460;28;20399;-76
2023/01/27 01:56:44;;;;;;;18.02;9.35;;;5.40;64.90;;;;;;5073706;28;20383;-74
2023/01/27 01:59:21;;;;;;;20.33;9.00;;;5.30;63.80;;;;;;5073537;28;20372;-72
2023/01/27 02:01:46;;;;;;;20.75;10.02;;;5.30;64.20;;;;;;5073221;28;20375;-75
2023/01/27 02:04:18;;;;;;;23.55;11.98;;;5.20;66.00;;;;;;5073373;28;20375;-73
2023/01/27 02:06:57;;;;;;;22.02;10.43;;;5.20;67.50;;;;;;5073557;28;20995;-74
2023/01/27 02:09:23;;;;;;;23.00;10.80;;;5.20;66.60;;;;;;5073808;28;20378;-74
2023/01/27 02:11:50;;;;;;;24.98;10.63;;;5.10;68.60;;;;;;5073241;28;20376;-76
2023/01/27 02:14:16;;;;;;;24.67;10.80;;;5.10;67.70;;;;;;5073890;28;20745;-72
2023/01/27 02:16:43;;;;;;;25.90;11.82;;;5.10;68.70;;;;;;5074696;28;20380;-73
2023/01/27 02:19:20;;;;;;;25.85;12.20;;;5.10;67.80;;;;;;5074516;28;20391;-73
2023/01/27 02:21:49;;;;;;;20.97;11.30;;;5.10;68.50;;;;;;5073519;28;20434;-74
2023/01/27 02:24:15;;;;;;;20.38;11.35;;;5.10;68.30;;;;;;5074782;28;20450;-73
2023/01/27 02:26:42;;;;;;;23.47;11.57;;;5.10;69.70;;;;;;5077665;28;20430;-74
2023/01/27 02:29:17;;;;;;;25.98;13.25;;;5.10;70.40;;;;;;5083451;28;20388;-73
2023/01/27 02:31:42;;;;;;;26.13;13.02;;;5.10;72.50;;;;;;5088465;28;20395;-72
2023/01/27 02:34:12;;;;;;;25.17;13.60;;;5.10;73.50;;;;;;5087744;28;20383;-72
2023/01/27 02:36:43;;;;;;;28.30;15.00;;;5.20;73.60;;;;;;5077273;28;20447;-74
2023/01/27 02:39:12;;;;;;;30.63;15.80;;;5.10;72.70;;;;;;5074679;28;20445;-76
2023/01/27 02:41:50;;;;;;;26.95;15.93;;;5.00;70.50;;;;;;5074240;28;20384;-72
2023/01/27 02:44:15;;;;;;;31.73;16.65;;;5.00;70.90;;;;;;5073891;28;20449;-74
2023/01/27 02:46:41;;;;;;;27.27;13.68;;;5.00;69.10;;;;;;5074253;28;20384;-74
2023/01/27 02:49:07;;;;;;;22.95;13.57;;;5.00;67.40;;;;;;5071346;28;20388;-75
2023/01/27 02:51:32;;;;;;;21.80;12.70;;;4.90;68.50;;;;;;5072941;28;20418;-74
2023/01/27 02:53:58;;;;;;;23.03;12.70;;;4.90;65.70;;;;;;5073984;28;20394;-74
2023/01/27 02:56:23;;;;;;;27.03;12.70;;;4.90;65.40;;;;;;5073501;28;20380;-74
2023/01/27 02:58:49;;;;;;;24.55;12.40;;;5.00;65.40;;;;;;5072338;28;20896;-74
2023/01/27 03:01:15;;;;;;;25.30;12.02;;;4.90;64.70;;;;;;5072566;28;20411;-74
2023/01/27 03:03:42;;;;;;;26.60;13.80;;;4.90;64.00;;;;;;5072686;28;20388;-74
2023/01/27 03:06:09;;;;;;;21.23;13.55;;;4.90;65.00;;;;;;5072507;28;20509;-74
2023/01/27 03:08:34;;;;;;;20.83;12.10;;;4.90;64.30;;;;;;5072226;28;20379;-74
2023/01/27 03:11:00;;;;;;;23.33;11.03;;;4.90;62.90;;;;;;5071773;28;20390;-72
2023/01/27 03:13:26;;;;;;;17.33;9.77;;;4.80;62.50;;;;;;5073886;28;20868;-73
2023/01/27 03:18:37;;;;;;;18.67;9.68;;;4.70;64.10;;;;;;5071447;28;20469;-73
2023/01/27 03:21:05;;;;;;;14.63;8.40;;;4.70;64.80;;;;;;5072317;28;20387;-73
2023/01/27 03:23:35;;;;;;;12.50;7.88;;;4.70;63.10;;;;;;5072016;28;20841;-72
2023/01/27 03:26:04;;;;;;;11.68;7.93;;;4.60;64.10;;;;;;5071665;28;20417;-74
2023/01/27 03:28:30;;;;;;;13.18;7.43;;;4.60;64.30;;;;;;5071850;28;20441;-74
2023/01/27 03:31:07;;;;;;;12.60;8.00;;;4.60;65.30;;;;;;5071223;28;20391;-71
2023/01/27 03:33:33;;;;;;;15.10;8.65;;;4.50;66.90;;;;;;5071296;28;20383;-73
2023/01/27 03:47:01;;;;;;;15.23;9.23;;;4.50;69.60;;;;;;5071969;28;20436;-72
2023/01/27 03:49:26;;;;;;;16.23;9.23;;;4.50;71.10;;;;;;5073683;28;20376;-72
2023/01/27 03:51:52;;;;;;;12.88;8.23;;;4.40;70.90;;;;;;5073722;28;20383;-73
2023/01/27 03:54:18;;;;;;;15.25;8.10;;;4.50;70.10;;;;;;5074584;28;20872;-72
2023/01/27 03:56:44;;;;;;;18.20;8.77;;;4.40;71.30;;;;;;5070645;28;20452;-72
2023/01/27 03:59:09;;;;;;;15.23;8.80;;;4.30;72.80;;;;;;5077999;28;20398;-73
2023/01/27 04:01:35;;;;;;;14.63;8.50;;;4.30;73.40;;;;;;5096857;28;20385;-72
2023/01/27 04:07:01;;;;;;;15.63;7.95;;;4.40;72.80;;;;;;5082196;28;20432;-72
2023/01/27 04:09:27;;;;;;;12.05;8.13;;;4.30;73.20;;;;;;5094493;28;20378;-72
2023/01/27 04:11:54;;;;;;;12.60;7.85;;;4.30;74.60;;;;;;5060747;28;20389;-71
2023/01/27 04:14:29;;;;;;;14.23;8.65;;;4.30;74.40;;;;;;5094331;28;20378;-71
2023/01/27 04:17:01;;;;;;;17.42;8.63;;;4.30;74.80;;;;;;5077715;28;20411;-71
2023/01/27 04:19:26;;;;;;;16.92;9.27;;;4.30;75.20;;;;;;5036424;28;20393;-73
2023/01/27 04:21:53;;;;;;;19.15;10.20;;;4.30;76.20;;;;;;5055031;28;20893;-72
2023/01/27 04:24:22;;;;;;;21.20;10.65;;;4.30;78.20;;;;;;5054299;28;20507;-72
2023/01/27 04:26:56;;;;;;;21.23;11.15;;;4.30;80.20;;;;;;5035616;28;20389;-73
2023/01/27 04:29:25;;;;;;;19.40;9.98;;;4.30;81.30;;;;;;5056141;28;20412;-72
2023/01/27 04:31:51;;;;;;;19.85;11.30;;;4.30;82.40;;;;;;5050722;28;20397;-72
2023/01/27 04:34:17;;;;;;;23.10;11.73;;;4.20;84.50;;;;;;5051377;28;20388;-70
2023/01/27 04:36:43;;;;;;;21.30;12.05;;;4.20;85.80;;;;;;5050904;28;20400;-71
2023/01/27 04:39:09;;;;;;;19.45;11.18;;;4.10;87.60;;;;;;5056343;28;20388;-73
2023/01/27 04:41:35;;;;;;;26.88;13.70;;;4.10;88.30;;;;;;5054639;28;20381;-71
2023/01/27 04:44:02;;;;;;;23.65;12.40;;;4.10;88.80;;;;;;5054767;28;20385;-72
2023/01/27 04:46:28;;;;;;;22.38;12.10;;;4.00;90.90;;;;;;5054594;28;20750;-71
2023/01/27 04:48:53;;;;;;;21.97;12.03;;;4.00;90.60;;;;;;5054441;28;20407;-72
2023/01/27 04:51:19;;;;;;;25.48;13.77;;;4.10;90.80;;;;;;5054440;28;20393;-71
2023/01/27 04:53:45;;;;;;;24.38;13.90;;;4.00;91.60;;;;;;5054477;28;20393;-71
2023/01/27 04:56:26;;;;;;;25.37;13.33;;;4.00;92.80;;;;;;5055198;28;20400;-72
2023/01/27 04:58:52;;;;;;;22.25;13.15;;;4.10;92.80;;;;;;5059800;28;20420;-73
2023/01/27 05:01:18;;;;;;;26.40;13.50;;;4.10;92.30;;;;;;5071978;28;20378;-72
2023/01/27 05:03:43;;;;;;;25.15;14.45;;;4.20;91.30;;;;;;5057593;28;20457;-71
2023/01/27 05:06:10;;;;;;;29.50;14.67;;;4.20;91.80;;;;;;5067398;28;21006;-73
2023/01/27 05:08:36;;;;;;;25.80;13.98;;;4.10;92.70;;;;;;5054222;28;20393;-71
2023/01/27 05:11:01;;;;;;;29.38;15.10;;;4.20;92.20;;;;;;5053844;28;20393;-72
2023/01/27 05:13:27;;;;;;;24.50;13.23;;;4.20;91.20;;;;;;5054023;28;20400;-72
2023/01/27 05:16:22;;;;;;;27.63;14.57;;;4.30;92.20;;;;;;5054340;28;20424;-72
2023/01/27 05:18:49;;;;;;;27.95;14.30;;;4.30;89.90;;;;;;5054703;28;20428;-73
2023/01/27 05:21:18;;;;;;;28.00;14.77;;;4.30;90.90;;;;;;5053985;28;20420;-73
2023/01/27 05:23:43;;;;;;;26.60;14.32;;;4.20;91.80;;;;;;5055489;28;20381;-72
2023/01/27 05:26:17;;;;;;;23.80;14.07;;;4.20;92.20;;;;;;5054910;28;20394;-73
2023/01/27 05:28:45;;;;;;;27.30;15.32;;;4.30;93.30;;;;;;5053820;28;20411;-72
2023/01/27 05:31:17;;;;;;;27.23;15.20;;;4.30;94.40;;;;;;5054130;28;20467;-73
2023/01/27 05:33:43;;;;;;;31.17;15.98;;;4.30;94.10;;;;;;5053658;28;20394;-72
2023/01/27 05:36:11;;;;;;;28.05;16.42;;;4.30;94.10;;;;;;5054125;28;20496;-72
2023/01/27 05:38:37;;;;;;;29.80;16.10;;;4.40;93.90;;;;;;5053688;28;20504;-72
2023/01/27 05:41:05;;;;;;;31.95;17.02;;;4.40;94.30;;;;;;5035794;28;20413;-72
2023/01/27 05:43:32;;;;;;;31.17;17.00;;;4.40;95.40;;;;;;5054868;28;20460;-71
2023/01/27 05:46:18;;;;;;;26.53;15.77;;;4.50;92.10;;;;;;5056050;28;20377;-72
2023/01/27 05:48:49;;;;;;;27.92;15.88;;;4.60;90.90;;;;;;5057816;28;20439;-71
2023/01/27 05:51:16;;;;;;;29.88;16.00;;;4.60;89.50;;;;;;5053998;28;20948;-72
2023/01/27 05:53:43;;;;;;;25.58;14.73;;;4.60;89.70;;;;;;5053871;28;20489;-72
2023/01/27 05:56:11;;;;;;;29.50;16.35;;;4.60;89.50;;;;;;5054097;28;20692;-72
2023/01/27 05:58:37;;;;;;;28.58;16.00;;;4.50;90.50;;;;;;5053560;28;20574;-73
2023/01/27 06:01:11;;;;;;;27.10;14.98;;;4.60;91.70;;;;;;5053138;28;20392;-72
2023/01/27 06:03:38;;;;;;;28.05;15.18;;;4.60;89.50;;;;;;5053735;28;20439;-72
2023/01/27 06:06:05;;;;;;;26.38;14.68;;;4.60;89.20;;;;;;5054671;28;20388;-74
2023/01/27 06:08:31;;;;;;;28.30;14.70;;;4.60;89.80;;;;;;5055792;28;20543;-72
2023/01/27 06:10:57;;;;;;;28.53;15.10;;;4.60;88.60;;;;;;5054175;28;20808;-73
2023/01/27 06:13:24;;;;;;;24.50;14.80;;;4.60;88.80;;;;;;5053132;28;20394;-73
2023/01/27 06:15:50;;;;;;;22.75;13.93;;;4.60;89.40;;;;;;5053021;28;20881;-73
2023/01/27 06:18:16;;;;;;;24.10;13.88;;;4.70;87.60;;;;;;5054560;28;20922;-72
2023/01/27 06:20:43;;;;;;;24.90;14.63;;;4.70;86.40;;;;;;5035678;28;20381;-73
2023/01/27 06:23:10;;;;;;;21.40;12.50;;;4.70;86.00;;;;;;5035835;28;20377;-72
2023/01/27 06:25:41;;;;;;;24.75;14.05;;;4.80;86.10;;;;;;5035292;28;20469;-72
2023/01/27 06:28:08;;;;;;;22.88;13.52;;;4.80;86.30;;;;;;5052752;28;20405;-72
2023/01/27 06:30:36;;;;;;;19.55;11.85;;;4.80;84.70;;;;;;5052881;28;20381;-72
2023/01/27 06:33:02;;;;;;;19.00;12.17;;;4.90;82.50;;;;;;5052405;28;20425;-72
2023/01/27 06:35:29;;;;;;;20.90;12.68;;;5.00;81.40;;;;;;5052868;28;20519;-73
2023/01/27 06:37:56;;;;;;;21.63;11.95;;;5.00;81.30;;;;;;5052862;28;20413;-73
2023/01/27 06:40:22;;;;;;;17.35;11.73;;;4.90;80.00;;;;;;5053556;28;20378;-73
2023/01/27 06:42:47;;;;;;;22.23;13.67;;;5.00;79.70;;;;;;5054936;28;20434;-72
2023/01/27 06:45:13;;;;;;;19.45;12.00;;;4.90;81.30;;;;;;5053784;28;20460;-72
2023/01/27 06:47:39;;;;;;;19.55;11.40;;;5.00;80.80;;;;;;5054128;28;20377;-72
2023/01/27 06:50:06;;;;;;;19.80;12.10;;;5.00;80.20;;;;;;5056742;28;20413;-71
2023/01/27 06:52:32;;;;;;;20.45;12.38;;;5.00;80.20;;;;;;5054379;28;20397;-72
2023/01/27 06:54:57;;;;;;;19.17;11.77;;;5.10;79.20;;;;;;5053540;28;20385;-72
2023/01/27 06:57:23;;;;;;;19.60;12.68;;;5.10;78.40;;;;;;5052521;28;20405;-72
2023/01/27 06:59:49;;;;;;;18.20;11.00;;;5.10;78.60;;;;;;5052878;28;20378;-72
2023/01/27 07:02:14;;;;;;;19.02;11.68;;;5.10;77.50;;;;;;5052582;28;20381;-71
2023/01/27 07:04:40;;;;;;;23.55;12.20;;;5.10;77.20;;;;;;5053130;28;20388;-71
2023/01/27 07:07:05;;;;;;;15.25;11.25;;;5.10;78.00;;;;;;5053963;28;20400;-72
2023/01/27 07:09:31;;;;;;;20.73;13.70;;;5.10;78.60;;;;;;5052873;28;20919;-72
2023/01/27 07:11:56;;;;;;;19.00;11.90;;;5.20;79.40;;;;;;5052465;28;20388;-71
2023/01/27 07:14:22;;;;;;;15.77;10.60;;;5.10;76.30;;;;;;5052720;28;20387;-72
2023/01/27 07:16:47;;;;;;;19.83;12.20;;;5.20;76.30;;;;;;5052863;28;20878;-71
2023/01/27 07:19:13;;;;;;;17.40;11.93;;;5.10;77.40;;;;;;5051994;28;20392;-71
2023/01/27 07:21:39;;;;;;;21.65;11.50;;;5.20;76.80;;;;;;5053187;28;20414;-72
2023/01/27 07:24:05;;;;;;;18.67;11.67;;;5.10;76.10;;;;;;5052886;28;20421;-72
2023/01/27 07:26:30;;;;;;;17.27;11.33;;;5.20;76.00;;;;;;5052058;28;20386;-71
2023/01/27 07:28:56;;;;;;;15.23;11.30;;;5.10;75.30;;;;;;5056015;28;20393;-73
2023/01/27 07:31:21;;;;;;;15.77;10.30;;;5.20;76.50;;;;;;5056956;28;20464;-72
2023/01/27 07:33:47;;;;;;;18.08;11.52;;;5.20;74.70;;;;;;5063048;28;20397;-73
2023/01/27 07:36:13;;;;;;;17.87;11.50;;;5.20;75.90;;;;;;5065259;28;20450;-71
2023/01/27 07:38:38;;;;;;;16.57;11.10;;;5.20;77.60;;;;;;5058467;28;20420;-72
2023/01/27 07:41:06;;;;;;;18.00;11.63;;;5.20;78.30;;;;;;5050818;28;20504;-71
2023/01/27 07:43:35;;;;;;;14.48;10.38;;;5.10;79.30;;;;;;5053849;28;20381;-73
2023/01/27 07:46:00;;;;;;;15.77;11.60;;;5.00;79.90;;;;;;5052203;28;20871;-72
2023/01/27 07:48:26;;;;;;;16.80;11.60;;;5.00;81.70;;;;;;5051738;28;20392;-72
2023/01/27 07:50:52;;;;;;;17.33;12.50;;;5.00;82.00;;;;;;5051584;28;20500;-74
2023/01/27 07:53:17;;;;;;;15.95;11.15;;;5.10;83.40;;;;;;5052106;28;20456;-73
2023/01/27 07:55:43;;;;;;;13.25;10.18;;;5.10;81.20;;;;;;5051654;28;20607;-73
2023/01/27 07:58:09;;;;;;;14.45;9.52;;;5.10;79.10;;;;;;5051611;28;20763;-73
2023/01/27 08:00:35;;;;;;;15.80;10.00;;;5.10;78.70;;;;;;5052056;28;20417;-74
2023/01/27 08:03:01;;;;;;;13.95;10.00;;;5.10;80.80;;;;;;5051582;28;20428;-75
2023/01/27 08:05:28;;;;;;;14.25;10.30;;;5.20;80.20;;;;;;5052208;28;20838;-73
2023/01/27 08:07:55;;;;;;;17.73;11.80;;;5.10;79.60;;;;;;5034726;28;20450;-74
2023/01/27 08:10:21;;;;;;;15.17;9.93;;;5.20;80.50;;;;;;5052565;28;20919;-74
2023/01/27 08:12:47;;;;;;;17.65;11.27;;;5.30;79.00;;;;;;5051627;28;20388;-75
2023/01/27 08:15:13;;;;;;;14.80;11.00;;;5.30;78.90;;;;;;5035230;28;20695;-72
2023/01/27 08:17:38;;;;;;;13.00;9.95;;;5.30;77.70;;;;;;5033940;28;20934;-75
2023/01/27 08:20:05;;;;;;;12.73;9.97;;;5.30;78.20;;;;;;5052183;28;20443;-76
2023/01/27 08:22:30;;;;;;;14.05;11.20;;;5.40;77.50;;;;;;5053559;28;20759;-73
2023/01/27 08:24:56;;;;;;;14.87;10.90;;;5.40;77.80;;;;;;5051610;28;20385;-73
2023/01/27 08:27:22;;;;;;;12.85;9.98;;;5.50;76.50;;;;;;5052584;28;20392;-75
2023/01/27 08:29:47;;;;;;;12.35;9.13;;;5.50;74.60;;;;;;5052960;28;20388;-74
2023/01/27 08:32:13;;;;;;;12.53;9.50;;;5.50;74.40;;;;;;5052485;28;20440;-72
2023/01/27 08:34:40;;;;;;;13.85;10.55;;;5.50;74.60;;;;;;5051963;28;20417;-75
2023/01/27 08:37:05;;;;;;;12.63;10.00;;;5.50;74.60;;;;;;5051391;28;20667;-74
2023/01/27 08:39:32;;;;;;;14.75;10.45;;;5.60;74.10;;;;;;5050978;28;20377;-73
2023/01/27 08:41:58;;;;;;;13.25;10.27;;;5.70;75.00;;;;;;5050733;28;20411;-74
2023/01/27 08:44:24;;;;;;;13.40;10.80;;;5.80;72.50;;;;;;5051577;28;20398;-75
2023/01/27 08:46:49;;;;;;;14.15;9.80;;;5.80;71.10;;;;;;5051418;28;20723;-75
2023/01/27 08:49:15;;;;;;;15.07;11.68;;;5.90;71.20;;;;;;5050924;28;20393;-73
2023/01/27 08:51:42;;;;;;;15.52;12.20;;;5.90;71.30;;;;;;5051194;28;20922;-73
2023/01/27 08:54:08;;;;;;;13.38;10.13;;;5.90;71.10;;;;;;5051251;28;20797;-72
2023/01/27 08:56:34;;;;;;;13.63;9.68;;;6.00;68.80;;;;;;5052659;28;20378;-74
2023/01/27 08:58:59;;;;;;;14.43;10.10;;;5.90;68.60;;;;;;5034419;28;20482;-73
2023/01/27 09:01:26;;;;;;;14.65;10.10;;;5.90;69.10;;;;;;5052206;28;20472;-75
2023/01/27 09:03:51;;;;;;;18.13;10.85;;;6.00;69.80;;;;;;5052103;28;20468;-74
2023/01/27 09:06:17;;;;;;;14.80;10.75;;;6.00;69.50;;;;;;5051777;28;20381;-75
2023/01/27 09:08:44;;;;;;;17.08;11.90;;;6.00;69.70;;;;;;5052615;28;20390;-74
2023/01/27 09:11:14;;;;;;;13.85;11.00;;;6.00;70.10;;;;;;5053288;28;20380;-74
2023/01/27 09:13:40;;;;;;;14.30;10.90;;;6.10;69.50;;;;;;5055888;28;20381;-75
2023/01/27 09:16:06;;;;;;;14.32;10.65;;;6.10;68.50;;;;;;5056373;28;20424;-74
2023/01/27 09:18:32;;;;;;;15.32;11.73;;;6.00;68.50;;;;;;5056743;28;20420;-74
2023/01/27 09:21:02;;;;;;;15.73;11.50;;;6.10;70.50;;;;;;5042357;28;20385;-74
2023/01/27 09:23:28;;;;;;;14.65;10.90;;;6.10;69.80;;;;;;5053909;28;20439;-73
2023/01/27 09:25:53;;;;;;;15.13;10.50;;;6.10;68.50;;;;;;5055711;28;20386;-74
2023/01/27 09:28:19;;;;;;;15.50;11.07;;;6.20;68.00;;;;;;5037065;28;20392;-74
2023/01/27 09:30:45;;;;;;;16.25;9.75;;;6.10;69.00;;;;;;5053869;28;20488;-75
2023/01/27 09:33:12;;;;;;;17.27;12.05;;;6.10;69.10;;;;;;5054117;28;20404;-74
2023/01/27 09:35:58;;;;;;;15.40;10.40;;;6.10;70.60;;;;;;5054550;28;20388;-74
2023/01/27 09:38:27;;;;;;;18.48;10.55;;;6.10;69.30;;;;;;5054807;28;20409;-75
2023/01/27 09:41:14;;;;;;;14.18;9.73;;;6.10;70.10;;;;;;5054585;28;20396;-74
2023/01/27 09:43:39;;;;;;;15.43;10.93;;;6.00;69.60;;;;;;5055191;28;20384;-74
2023/01/27 09:46:43;;;;;;;13.10;9.60;;;6.00;70.10;;;;;;5054446;28;20378;-72
2023/01/27 09:49:21;;;;;;;16.38;11.43;;;6.00;70.10;;;;;;5054118;28;20385;-72
2023/01/27 09:52:07;;;;;;;16.58;11.70;;;6.00;71.80;;;;;;5054068;28;20464;-73
2023/01/27 09:54:42;;;;;;;15.98;11.15;;;6.10;71.50;;;;;;5054650;28;20834;-73
2023/01/27 09:57:17;;;;;;;16.05;11.93;;;6.20;69.30;;;;;;5054609;28;20401;-74
2023/01/27 09:59:51;;;;;;;15.73;12.20;;;6.30;68.90;;;;;;5054028;28;20373;-74
2023/01/27 10:02:43;;;;;;;19.98;12.48;;;6.30;69.30;;;;;;5054647;28;20382;-74
2023/01/27 10:05:29;;;;;;;19.33;12.40;;;6.30;70.30;;;;;;5014541;28;20389;-74
2023/01/27 10:07:54;;;;;;;17.30;11.60;;;6.50;69.00;;;;;;5072428;28;20381;-74
2023/01/27 10:10:45;;;;;;;14.00;10.80;;;6.60;65.90;;;;;;5060841;28;20500;-74
2023/01/27 10:13:49;;;;;;;16.10;12.00;;;6.60;66.20;;;;;;5053471;28;20381;-75
2023/01/27 10:16:35;;;;;;;14.35;11.07;;;6.60;67.90;;;;;;5053747;28;20420;-73
2023/01/27 10:19:30;;;;;;;16.95;11.65;;;6.70;66.40;;;;;;5053581;28;20419;-73
2023/01/27 10:22:06;;;;;;;14.13;10.80;;;6.70;67.50;;;;;;5054609;28;20493;-75
2023/01/27 10:24:39;;;;;;;15.77;11.80;;;6.50;68.80;;;;;;5053736;28;20924;-73
2023/01/27 10:27:21;;;;;;;14.68;10.35;;;6.50;70.90;;;;;;5053392;28;20396;-74
2023/01/27 10:30:14;;;;;;;14.13;10.20;;;6.50;69.80;;;;;;5053260;28;20396;-72
2023/01/27 10:32:54;;;;;;;14.15;9.70;;;6.50;69.10;;;;;;5052928;28;20458;-73
2023/01/27 10:35:31;;;;;;;16.15;10.90;;;6.40;70.30;;;;;;5052093;28;20383;-74
2023/01/27 10:38:09;;;;;;;14.02;10.57;;;6.40;72.60;;;;;;5052955;28;20401;-73
2023/01/27 10:40:40;;;;;;;13.50;10.50;;;6.60;71.80;;;;;;5052920;28;20734;-72
2023/01/27 10:43:14;;;;;;;14.85;10.00;;;6.70;71.20;;;;;;5052793;28;20913;-72
2023/01/27 10:46:14;;;;;;;13.40;10.10;;;6.60;70.30;;;;;;5052976;28;20389;-75
2023/01/27 10:49:13;;;;;;;13.30;10.00;;;6.60;70.50;;;;;;5053069;28;20394;-75
2023/01/27 10:51:48;;;;;;;12.93;10.13;;;6.60;70.60;;;;;;5053069;28;20432;-73
2023/01/27 10:54:23;;;;;;;15.43;10.13;;;6.70;69.10;;;;;;5053483;28;20428;-75
2023/01/27 10:57:03;;;;;;;14.87;9.07;;;6.80;69.50;;;;;;5038651;28;20441;-74
2023/01/27 10:59:39;;;;;;;15.18;11.07;;;6.90;65.80;;;;;;5052811;28;20447;-75
2023/01/27 11:02:23;;;;;;;16.30;10.90;;;6.80;67.50;;;;;;5052411;28;20393;-74
2023/01/27 11:04:59;;;;;;;17.95;11.52;;;6.90;66.70;;;;;;5052324;28;20379;-75
2023/01/27 11:07:25;;;;;;;14.55;9.65;;;7.00;66.90;;;;;;5052031;28;20837;-73
2023/01/27 11:09:59;;;;;;;15.45;11.70;;;6.70;66.00;;;;;;5052032;28;20392;-74
2023/01/27 11:12:29;;;;;;;17.88;11.77;;;6.70;69.00;;;;;;5052189;28;20389;-73
2023/01/27 11:14:56;;;;;;;15.52;11.15;;;6.90;69.50;;;;;;5052149;28;20409;-75
2023/01/27 11:18:00;;;;;;;14.65;10.13;;;6.90;67.30;;;;;;5051784;28;20405;-74
2023/01/27 11:20:31;;;;;;;14.55;10.68;;;6.80;65.30;;;;;;5051159;28;20463;-75
2023/01/27 11:23:08;;;;;;;15.23;10.50;;;6.80;67.90;;;;;;5052334;28;20385;-72
2023/01/27 11:25:52;;;;;;;14.83;11.20;;;6.80;66.90;;;;;;5052604;28;20469;-74
2023/01/27 11:28:46;;;;;;;15.05;10.75;;;7.00;65.40;;;;;;5052350;28;20393;-75
2023/01/27 11:31:49;;;;;;;18.50;12.10;;;7.00;65.50;;;;;;5033971;28;20443;-74
2023/01/27 11:34:25;;;;;;;15.87;10.60;;;7.20;65.10;;;;;;5052230;28;20432;-73
2023/01/27 11:36:51;;;;;;;14.07;9.85;;;7.40;60.30;;;;;;5051814;28;20388;-76
2023/01/27 11:39:17;;;;;;;17.25;10.98;;;7.30;60.40;;;;;;5051754;28;20381;-75
2023/01/27 11:41:49;;;;;;;15.20;10.50;;;7.10;60.50;;;;;;5051458;28;20851;-74
2023/01/27 11:44:30;;;;;;;16.40;10.07;;;7.00;62.70;;;;;;5052437;28;20746;-73
2023/01/27 11:46:56;;;;;;;17.63;10.20;;;7.00;61.40;;;;;;5051934;28;20431;-73
2023/01/27 11:49:29;;;;;;;17.25;11.48;;;7.00;62.20;;;;;;5051303;28;20390;-75
2023/01/27 11:52:09;;;;;;;15.93;10.57;;;7.00;62.20;;;;;;5051074;28;20813;-76
2023/01/27 11:54:42;;;;;;;18.00;11.05;;;7.00;62.60;;;;;;5051889;28;20393;-74
2023/01/27 11:57:21;;;;;;;15.20;10.90;;;7.10;63.40;;;;;;5051832;28;20405;-75
2023/01/27 11:59:52;;;;;;;15.30;10.35;;;7.10;62.90;;;;;;5051946;28;20382;-76
2023/01/27 12:02:40;;;;;;;17.05;11.18;;;7.10;60.10;;;;;;5052076;28;20377;-74
2023/01/27 12:05:33;;;;;;;15.55;11.05;;;6.90;62.30;;;;;;5051334;28;20815;-73
2023/01/27 12:08:02;;;;;;;18.27;11.23;;;6.90;64.70;;;;;;5048287;28;20924;-74
2023/01/27 12:10:34;;;;;;;20.50;11.05;;;7.00;62.70;;;;;;5051503;28;20453;-74
2023/01/27 12:13:16;;;;;;;16.90;11.68;;;7.00;61.80;;;;;;5051496;28;20930;-75
2023/01/27 12:16:01;;;;;;;16.73;11.52;;;7.00;62.70;;;;;;5051607;28;20397;-73
2023/01/27 12:18:31;;;;;;;15.52;10.90;;;7.10;61.40;;;;;;5051967;28;20805;-74
2023/01/27 12:21:00;;;;;;;15.05;11.00;;;7.10;61.00;;;;;;5051950;28;20465;-75
2023/01/27 12:23:51;;;;;;;15.95;10.95;;;7.10;62.00;;;;;;5052282;28;20961;-76
2023/01/27 12:26:36;;;;;;;15.88;10.73;;;7.20;62.00;;;;;;5035199;28;20404;-73
2023/01/27 12:29:15;;;;;;;14.80;10.02;;;7.10;59.80;;;;;;5052099;28;20404;-75
2023/01/27 12:31:47;;;;;;;17.80;10.80;;;7.00;59.90;;;;;;5051749;28;20466;-73
2023/01/27 12:34:30;;;;;;;16.65;10.95;;;7.00;60.30;;;;;;5053407;28;20381;-73
2023/01/27 12:36:57;;;;;;;14.80;10.88;;;7.00;61.20;;;;;;5056124;28;20397;-74
2023/01/27 12:39:39;;;;;;;14.48;10.23;;;7.00;62.20;;;;;;5062758;28;20419;-72
2023/01/27 12:42:05;;;;;;;16.55;10.85;;;7.00;61.20;;;;;;5053647;28;20389;-75
2023/01/27 12:44:42;;;;;;;15.55;10.18;;;6.90;62.30;;;;;;5053511;28;20852;-75
2023/01/27 12:47:27;;;;;;;14.70;10.10;;;6.90;61.00;;;;;;5056940;28;20386;-75
2023/01/27 12:50:20;;;;;;;15.57;10.38;;;6.80;61.10;;;;;;5056993;28;20922;-74
2023/01/27 12:52:53;;;;;;;13.75;9.32;;;6.80;60.70;;;;;;5054080;28;20416;-75
2023/01/27 12:55:31;;;;;;;13.50;9.50;;;6.80;61.60;;;;;;5051778;28;20389;-74
2023/01/27 12:57:56;;;;;;;15.77;9.80;;;6.90;59.30;;;;;;5051663;28;20492;-74
2023/01/27 13:00:22;;;;;;;12.43;9.18;;;6.90;60.10;;;;;;5055197;28;20416;-75
2023/01/27 13:02:48;;;;;;;13.35;9.15;;;7.10;60.30;;;;;;5055264;28;20377;-74
2023/01/27 13:05:16;;;;;;;16.83;9.88;;;7.10;56.90;;;;;;5056216;28;20388;-74
2023/01/27 13:07:49;;;;;;;11.70;8.93;;;7.10;58.00;;;;;;5055612;28;20469;-74
2023/01/27 13:10:22;;;;;;;14.87;9.60;;;7.00;57.20;;;;;;5038355;28;20884;-75
2023/01/27 13:12:53;;;;;;;11.40;8.57;;;7.00;58.90;;;;;;5054859;28;20392;-74
2023/01/27 13:15:21;;;;;;;10.80;7.95;;;7.30;56.30;;;;;;5055176;28;20396;-73
2023/01/27 13:17:49;;;;;;;10.90;8.20;;;7.30;54.50;;;;;;5054127;28;20441;-74
2023/01/27 13:20:18;;;;;;;10.80;7.80;;;7.30;53.80;;;;;;5054271;28;20397;-72
2023/01/27 13:22:48;;;;;;;10.70;8.40;;;7.20;54.50;;;;;;5054076;28;20465;-74